»·PEaware :: WAT390 KLAS-KRNO

WAT390 :: KLAS-KRNO

FLIGHT INFORMATION

Flight Status: Arrived
Operator:
Walker Air Transport
More flights by this operator :: More flights under this callsign
Pilot: Ewen S. (18928)
Aircraft: AIRBUS A300B4-600
(A306)
More flights by this aircraft type
Origin: KLAS McCarran Intl
United States
Destination: KRNO Reno/Tahoe Intl
United States
More flights between these airports :: More routes between these airports
Route: SHEAD1 KENNO KENNO2
File this flight plan on PilotEdge
Remarks:
Altitude:
(Current/Filed)
28,000ft
Speed:
(Current/Filed)
450kts
Departed: 27-Oct-20 02:08 PM
Arrived: 27-Oct-20 03:07 PM
Distance/Time
Traveled:
301nm/0:59
Distance/Time
To Go:
Arrived

Flight Plot

Page will automatically refresh every two minutes.

Flight plan parsing failed; only flown route is shown


Map Options




Map Legend


Flown Route
Filed Route
Departure Airport
Arrival Airport
Navaid (VOR, NDB)
Fix

Horizontal Profiles

Position Reports

Time Latitude Longitude Heading Altitude Ground
Speed
27-Oct-20 13:26 36.082401 -115.125555 89 2191ft 0kts
27-Oct-20 13:27 36.082401 -115.125555 89 2191ft 0kts
27-Oct-20 13:28 36.082401 -115.125555 89 2191ft 0kts
27-Oct-20 13:29 36.082401 -115.125555 89 2191ft 0kts
27-Oct-20 13:30 36.082401 -115.125555 89 2191ft 0kts
27-Oct-20 13:31 36.082401 -115.125555 89 2191ft 0kts
27-Oct-20 13:32 36.082401 -115.125555 89 2191ft 0kts
27-Oct-20 13:33 36.082401 -115.125555 89 2191ft 0kts
27-Oct-20 13:34 36.082401 -115.125555 89 2191ft 0kts
27-Oct-20 13:35 36.082401 -115.125555 89 2191ft 0kts
27-Oct-20 13:36 36.082401 -115.125555 89 2191ft 0kts
27-Oct-20 13:37 36.082401 -115.125555 89 2191ft 0kts
27-Oct-20 13:38 36.082401 -115.125555 89 2191ft 0kts
27-Oct-20 13:39 36.082401 -115.125555 89 2191ft 0kts
27-Oct-20 13:40 36.082401 -115.125555 89 2191ft 0kts
27-Oct-20 13:41 36.082401 -115.125555 89 2191ft 0kts
27-Oct-20 13:42 36.082401 -115.125555 89 2191ft 0kts
27-Oct-20 13:43 36.082401 -115.125555 89 2191ft 0kts
27-Oct-20 13:44 36.082401 -115.125555 89 2191ft 0kts
27-Oct-20 13:45 36.082401 -115.125555 89 2191ft 0kts
27-Oct-20 13:46 36.082401 -115.125555 89 2191ft 0kts
27-Oct-20 13:47 36.082401 -115.125555 89 2191ft 0kts
27-Oct-20 13:48 36.082401 -115.125555 89 2191ft 0kts
27-Oct-20 13:49 36.082401 -115.125555 89 2191ft 0kts
27-Oct-20 13:50 36.082401 -115.125555 89 2191ft 0kts
27-Oct-20 13:51 36.082401 -115.125555 89 2191ft 0kts
27-Oct-20 13:52 36.082401 -115.125555 89 2191ft 0kts
27-Oct-20 13:53 36.082401 -115.125555 89 2191ft 0kts
27-Oct-20 13:54 36.082401 -115.125555 89 2191ft 0kts
27-Oct-20 13:55 36.082471 -115.126078 118 2191ft 2kts
27-Oct-20 13:56 36.082861 -115.126358 180 2191ft 0kts
27-Oct-20 13:57 36.082861 -115.126358 180 2191ft 0kts
27-Oct-20 13:58 36.082861 -115.126358 180 2191ft 0kts
27-Oct-20 13:59 36.082861 -115.126358 180 2191ft 0kts
27-Oct-20 14:00 36.082861 -115.126358 180 2191ft 0kts
27-Oct-20 14:01 36.082186 -115.126352 179 2191ft 9kts
27-Oct-20 14:02 36.079638 -115.126332 178 2191ft 0kts
27-Oct-20 14:03 36.078024 -115.126255 164 2191ft 14kts
27-Oct-20 14:04 36.077603 -115.122364 95 2191ft 9kts
27-Oct-20 14:05 36.077577 -115.122094 97 2191ft 1kts
27-Oct-20 14:06 36.076490 -115.121852 268 2191ft 7kts
27-Oct-20 14:07 36.076441 -115.159383 271 2779ft 221kts
27-Oct-20 14:08 36.067853 -115.242299 235 4426ft 273kts
27-Oct-20 14:09 35.997227 -115.290452 201 7085ft 285kts
27-Oct-20 14:10 35.931342 -115.350343 226 10329ft 318kts
27-Oct-20 14:11 35.889295 -115.460853 271 11979ft 397kts
27-Oct-20 14:12 35.890853 -115.600545 277 15451ft 420kts
27-Oct-20 14:13 35.893285 -115.746045 278 18504ft 436kts
27-Oct-20 14:14 35.900115 -115.896829 289 19108ft 426kts
27-Oct-20 14:15 35.947563 -116.027788 319 20112ft 413kts
27-Oct-20 14:16 36.031218 -116.125390 322 22699ft 420kts
27-Oct-20 14:17 36.117993 -116.225365 322 24065ft 430kts
27-Oct-20 14:18 36.206122 -116.327112 322 25095ft 434kts
27-Oct-20 14:19 36.294765 -116.429695 322 25928ft 438kts
27-Oct-20 14:20 36.384268 -116.533585 322 26754ft 442kts
27-Oct-20 14:21 36.473695 -116.638100 321 27572ft 441kts
27-Oct-20 14:22 36.564616 -116.742152 328 28152ft 442kts
27-Oct-20 14:23 36.668744 -116.824917 332 28153ft 445kts
27-Oct-20 14:24 36.771499 -116.903610 332 28152ft 446kts
27-Oct-20 14:25 36.877511 -116.984679 332 28151ft 446kts
27-Oct-20 14:26 36.983939 -117.066131 332 28150ft 447kts
27-Oct-20 14:27 37.090287 -117.147674 332 28152ft 447kts
27-Oct-20 14:28 37.196769 -117.229529 331 28202ft 448kts
27-Oct-20 14:29 37.303329 -117.311759 330 28239ft 449kts
27-Oct-20 14:30 37.399332 -117.414762 323 28239ft 454kts
27-Oct-20 14:31 37.497083 -117.516209 328 28238ft 452kts
27-Oct-20 14:32 37.603088 -117.603009 330 28238ft 452kts
27-Oct-20 14:33 37.709623 -117.688246 330 28235ft 452kts
27-Oct-20 14:34 37.816807 -117.773813 330 28239ft 453kts
27-Oct-20 14:36 37.924128 -117.859511 330 28253ft 454kts
27-Oct-20 14:37 38.031155 -117.945126 330 28276ft 454kts
27-Oct-20 14:38 38.138168 -118.030953 330 28306ft 454kts
27-Oct-20 14:39 38.244927 -118.116844 330 28322ft 454kts
27-Oct-20 14:40 38.351220 -118.202659 330 28338ft 454kts
27-Oct-20 14:41 38.454309 -118.296886 317 28349ft 458kts
27-Oct-20 14:42 38.543826 -118.413042 318 28347ft 459kts
27-Oct-20 14:43 38.635391 -118.526754 318 28245ft 441kts
27-Oct-20 14:44 38.718889 -118.630611 319 26345ft 409kts
27-Oct-20 14:45 38.798667 -118.730261 318 24220ft 398kts
27-Oct-20 14:46 38.876212 -118.827186 319 22185ft 392kts
27-Oct-20 14:47 38.954270 -118.924805 319 20104ft 386kts
27-Oct-20 14:48 39.029864 -119.019491 319 18052ft 378kts
27-Oct-20 14:49 39.102951 -119.111631 319 17033ft 343kts
27-Oct-20 14:50 39.171916 -119.198952 320 16641ft 346kts
27-Oct-20 14:51 39.239351 -119.284413 320 15933ft 334kts
27-Oct-20 14:52 39.302038 -119.364035 321 13674ft 313kts
27-Oct-20 14:53 39.362097 -119.437627 330 11846ft 282kts
27-Oct-20 14:54 39.424941 -119.496638 327 10060ft 265kts
27-Oct-20 14:54 39.471547 -119.540284 327 10040ft 230kts
27-Oct-20 14:56 39.538644 -119.581405 348 10041ft 225kts
27-Oct-20 14:56 39.586140 -119.597723 348 10046ft 213kts
27-Oct-20 14:58 39.653689 -119.622051 347 10020ft 215kts
27-Oct-20 14:58 39.701645 -119.640125 344 9946ft 215kts
27-Oct-20 14:59 39.733589 -119.704758 290 8729ft 218kts
27-Oct-20 15:00 39.720555 -119.771598 201 7679ft 205kts
27-Oct-20 15:01 39.666240 -119.767022 184 7511ft 193kts
27-Oct-20 15:02 39.617935 -119.768888 179 6620ft 165kts
27-Oct-20 15:03 39.573002 -119.769045 180 5676ft 157kts
27-Oct-20 15:04 39.529199 -119.769039 181 4840ft 157kts
27-Oct-20 15:05 39.493346 -119.769295 179 4423ft 47kts
27-Oct-20 15:06 39.489235 -119.770208 257 4423ft 15kts
27-Oct-20 15:07 39.489629 -119.771525 354 4423ft 10kts
27-Oct-20 15:08 39.494071 -119.771549 359 4423ft 22kts
27-Oct-20 15:09 39.501469 -119.771535 359 4423ft 25kts
27-Oct-20 15:10 39.507699 -119.771520 0 4423ft 19kts
27-Oct-20 15:11 39.509082 -119.772471 280 4423ft 5kts
27-Oct-20 15:12 39.508850 -119.775682 194 4423ft 0kts
27-Oct-20 15:13 39.508791 -119.775687 182 4423ft 0kts

Navigation Log

Ident Type
Flight plan parsing failed, navigation log unavailable